Milwaukee, Wisconsin
Traffic Map
Current Weather Conditions
Milwaukee, Wisconsin
Broken Clouds
Broken Clouds

Feels Like: 8°
Wind Chill: Ceiling: 9000
Heat Index: Visibility: 10mi
Dew Point: Wind: 5mph
Humidity: 74% Direction: 120° (ESE)
Pressure: 29.89in Gusts: 0mph
Raw Report DataKMKE 302352Z 12004KT 10SM FEW045 FEW070 BKN090 09/04 A2989 RMK AO2 RAE07 SLP127 P0000 60001 T00890044 10144 20089 58016
Traffic Incident Summary
Active as of:
Severity:
Category:
InformationThere was an issue retrieving the traffic information for this location. Please try a different location or try again shortly.
Advertisements
Track Severe Weather on mobile